Terminal Aerodrome Forecast
Issued by NWS

Home | Current Version | Previous Version | Text Only | Print | Product List | Glossary On
Versions: 1 2 3 4 5 6 7 8 9 10 11 12 13 14 15 16 17 18 19 20 21 22 23 24 25 26 27 28 29 30 31 32 33 34 35 36 37 38 39 40 41 42 43 44 45 46
869
FTUS45 KBOI 042331
TAFMYL
TAF
KMYL 042331Z 0500/0524 29008KT P6SM VCSH SCT015 BKN020 OVC060
      TEMPO 0500/0502 5SM -SHSN BR BKN015
     FM050200 34005KT 5SM BR SCT008 OVC025
     FM050700 VRB03KT 3/4SM BR OVC006
     FM052000 VRB04KT P6SM SCT006 BKN050=

USA.gov is the U.S. government's official web portal to all federal, state and local government web resources and services.